Time;durP1;ratioP1;P1;durP2;ratioP2;P2;SDS_P1;SDS_P2;PMS_P1;PMS_P2;Temp;Humidity;BMP_temperature;BMP_pressure;BME280_temperature;BME280_humidity;BME280_pressure;Samples;Min_cycle;Max_cycle;Signal;HPM_P1;HPM_P2
2023/10/18 00:00:58;;;;;;;2.78;1.40;;;;;;;;;;5004996;28;20030;-58
2023/10/18 00:03:32;;;;;;;2.70;1.45;;;;;;;;;;5004102;28;20046;-59
2023/10/18 00:06:11;;;;;;;2.42;1.08;;;;;;;;;;5004423;28;20064;-59
2023/10/18 00:08:36;;;;;;;1.98;1.10;;;;;;;;;;5004606;28;20073;-59
2023/10/18 00:11:03;;;;;;;1.83;1.23;;;;;;;;;;5003472;28;20491;-58
2023/10/18 00:13:30;;;;;;;2.72;1.42;;;;;;;;;;5002137;28;20155;-59
2023/10/18 00:15:59;;;;;;;2.10;1.30;;;;;;;;;;5004748;28;20140;-60
2023/10/18 00:18:24;;;;;;;2.72;1.30;;;;;;;;;;5002822;28;20037;-59
2023/10/18 00:20:57;;;;;;;2.03;1.20;;;;;;;;;;5007508;28;20033;-59
2023/10/18 00:23:23;;;;;;;2.47;1.48;;;;;;;;;;5008742;28;20285;-60
2023/10/18 00:25:48;;;;;;;2.45;1.20;;;;;;;;;;5008851;28;20053;-58
2023/10/18 00:28:13;;;;;;;2.23;1.47;;;;;;;;;;5008242;28;20525;-59
2023/10/18 00:30:39;;;;;;;2.10;1.20;;;;;;;;;;5006855;28;20281;-59
2023/10/18 00:33:06;;;;;;;1.80;1.20;;;;;;;;;;4982188;28;20500;-59
2023/10/18 00:35:32;;;;;;;1.60;1.10;;;;;;;;;;5006479;28;20502;-59
2023/10/18 00:37:57;;;;;;;1.80;1.10;;;;;;;;;;5008022;28;20125;-59
2023/10/18 00:42:54;;;;;;;2.80;1.40;;;;;;;;;;5008124;28;20065;-59
2023/10/18 00:45:22;;;;;;;2.50;1.25;;;;;;;;;;5008422;28;20030;-59
2023/10/18 00:47:48;;;;;;;2.40;1.38;;;;;;;;;;5007497;28;20050;-59
2023/10/18 00:50:14;;;;;;;2.15;1.50;;;;;;;;;;5006402;28;20153;-58
2023/10/18 00:52:39;;;;;;;5.32;1.42;;;;;;;;;;4999684;28;20069;-59
2023/10/18 00:55:05;;;;;;;1.88;1.20;;;;;;;;;;5008347;28;20041;-59
2023/10/18 00:57:36;;;;;;;2.35;1.20;;;;;;;;;;5005778;28;20045;-58
2023/10/18 01:00:07;;;;;;;2.17;1.40;;;;;;;;;;5007496;28;20501;-59
2023/10/18 01:02:35;;;;;;;3.42;1.50;;;;;;;;;;5001567;28;20568;-60
2023/10/18 01:05:03;;;;;;;2.05;1.30;;;;;;;;;;4998504;28;20029;-59
2023/10/18 01:07:28;;;;;;;1.95;1.15;;;;;;;;;;4998829;28;20594;-59
2023/10/18 01:09:54;;;;;;;2.07;1.40;;;;;;;;;;4997465;28;20034;-59
2023/10/18 01:12:19;;;;;;;2.20;1.30;;;;;;;;;;4999912;28;20321;-59
2023/10/18 01:14:45;;;;;;;2.17;1.20;;;;;;;;;;4988172;28;20307;-60
2023/10/18 01:17:10;;;;;;;2.20;1.40;;;;;;;;;;5011194;28;20034;-59
2023/10/18 01:19:36;;;;;;;1.98;1.30;;;;;;;;;;5006427;28;20054;-58
2023/10/18 01:22:02;;;;;;;2.30;1.38;;;;;;;;;;5006021;28;20077;-59
2023/10/18 01:24:34;;;;;;;2.88;1.30;;;;;;;;;;5007357;28;20482;-59
2023/10/18 01:26:59;;;;;;;2.53;1.60;;;;;;;;;;5005848;28;20045;-59
2023/10/18 01:29:25;;;;;;;2.00;1.38;;;;;;;;;;5003098;28;20057;-59
2023/10/18 01:31:51;;;;;;;2.30;1.40;;;;;;;;;;5004469;28;20046;-59
2023/10/18 01:34:16;;;;;;;2.22;1.50;;;;;;;;;;4995634;28;20379;-59
2023/10/18 01:36:42;;;;;;;2.65;1.50;;;;;;;;;;5005229;28;20187;-59
2023/10/18 01:39:20;;;;;;;2.20;1.50;;;;;;;;;;5005239;28;20034;-60
2023/10/18 01:41:46;;;;;;;1.98;1.10;;;;;;;;;;5006038;28;20083;-58
2023/10/18 01:44:12;;;;;;;2.05;1.40;;;;;;;;;;5006537;28;20125;-59
2023/10/18 01:46:43;;;;;;;3.45;1.58;;;;;;;;;;5005595;28;20046;-59
2023/10/18 01:49:13;;;;;;;2.67;1.65;;;;;;;;;;5006756;28;20176;-58
2023/10/18 01:51:38;;;;;;;;;;;;;;;;;;5021249;28;20034;-59
2023/10/18 01:54:12;;;;;;;2.08;1.30;;;;;;;;;;4999346;28;20467;-58
2023/10/18 01:56:37;;;;;;;1.95;1.27;;;;;;;;;;5005973;28;20041;-59
2023/10/18 01:59:04;;;;;;;1.42;1.20;;;;;;;;;;5007018;28;20028;-59
2023/10/18 02:01:30;;;;;;;2.20;1.33;;;;;;;;;;5005690;28;20029;-59
2023/10/18 02:03:58;;;;;;;2.47;1.67;;;;;;;;;;4993708;28;20413;-60
2023/10/18 02:06:24;;;;;;;3.13;1.73;;;;;;;;;;4989827;28;20040;-59
2023/10/18 02:08:49;;;;;;;2.53;1.77;;;;;;;;;;5006702;28;20390;-59
2023/10/18 02:11:14;;;;;;;2.88;1.50;;;;;;;;;;5003194;28;20284;-59
2023/10/18 02:13:41;;;;;;;2.30;1.70;;;;;;;;;;5006046;28;20026;-59
2023/10/18 02:16:07;;;;;;;2.03;1.50;;;;;;;;;;5006054;28;20260;-59
2023/10/18 02:18:35;;;;;;;2.42;2.00;;;;;;;;;;5006412;28;20194;-59
2023/10/18 02:21:02;;;;;;;3.65;1.73;;;;;;;;;;5004954;28;20026;-59
2023/10/18 02:23:34;;;;;;;2.30;1.48;;;;;;;;;;4998864;28;20470;-59
2023/10/18 02:26:00;;;;;;;3.00;1.90;;;;;;;;;;4995430;28;20504;-59
2023/10/18 02:28:28;;;;;;;2.72;1.80;;;;;;;;;;5005683;28;20030;-59
2023/10/18 02:30:57;;;;;;;2.17;1.70;;;;;;;;;;5004854;28;20038;-59
2023/10/18 02:33:23;;;;;;;2.50;1.83;;;;;;;;;;4999625;28;20050;-59
2023/10/18 02:35:49;;;;;;;2.63;1.75;;;;;;;;;;4986435;28;20565;-59
2023/10/18 02:38:14;;;;;;;2.50;1.60;;;;;;;;;;5003395;28;20038;-58
2023/10/18 02:40:39;;;;;;;2.40;1.70;;;;;;;;;;5006155;28;20068;-59
2023/10/18 02:43:11;;;;;;;2.88;2.13;;;;;;;;;;5003477;28;20355;-58
2023/10/18 02:45:36;;;;;;;2.72;2.00;;;;;;;;;;5002270;28;20506;-58
2023/10/18 02:48:02;;;;;;;2.67;1.92;;;;;;;;;;5003873;28;20041;-59
2023/10/18 02:50:27;;;;;;;2.15;1.73;;;;;;;;;;5006360;28;20522;-61
2023/10/18 02:52:53;;;;;;;3.13;2.00;;;;;;;;;;5005528;28;20073;-59
2023/10/18 02:55:19;;;;;;;2.58;1.90;;;;;;;;;;5005582;28;20038;-58
2023/10/18 02:57:48;;;;;;;3.33;1.90;;;;;;;;;;5005268;28;20060;-59
2023/10/18 03:00:14;;;;;;;2.80;1.98;;;;;;;;;;5004509;28;20116;-58
2023/10/18 03:02:39;;;;;;;3.22;2.15;;;;;;;;;;5001813;28;20042;-58
2023/10/18 03:05:06;;;;;;;2.58;1.70;;;;;;;;;;4986873;28;20026;-58
2023/10/18 03:07:31;;;;;;;3.03;1.92;;;;;;;;;;4992929;28;20039;-58
2023/10/18 03:10:03;;;;;;;3.75;1.85;;;;;;;;;;5005369;28;20038;-58
2023/10/18 03:12:28;;;;;;;2.63;2.00;;;;;;;;;;5005455;28;20429;-58
2023/10/18 03:14:57;;;;;;;2.30;1.98;;;;;;;;;;5004935;28;20038;-57
2023/10/18 03:19:50;;;;;;;3.05;2.10;;;;;;;;;;5005402;28;20034;-59
2023/10/18 03:22:19;;;;;;;2.60;1.80;;;;;;;;;;4995761;28;20034;-59
2023/10/18 03:24:58;;;;;;;3.47;2.30;;;;;;;;;;5004866;28;20116;-59
2023/10/18 03:27:29;;;;;;;2.80;2.20;;;;;;;;;;5005107;28;20037;-59
2023/10/18 03:29:58;;;;;;;2.92;2.00;;;;;;;;;;5005067;28;20069;-59
2023/10/18 03:32:24;;;;;;;2.80;2.10;;;;;;;;;;5004010;28;20146;-59
2023/10/18 03:34:52;;;;;;;3.42;2.40;;;;;;;;;;5004930;28;20084;-59
2023/10/18 03:37:24;;;;;;;2.83;2.00;;;;;;;;;;5003093;28;20117;-59
2023/10/18 03:39:53;;;;;;;2.85;2.00;;;;;;;;;;5004982;28;20457;-59
2023/10/18 03:42:33;;;;;;;3.20;2.25;;;;;;;;;;5005461;28;20034;-58
2023/10/18 03:44:59;;;;;;;2.97;2.30;;;;;;;;;;4994357;28;20033;-59
2023/10/18 03:47:24;;;;;;;2.67;1.98;;;;;;;;;;5004367;28;20524;-59
2023/10/18 03:49:53;;;;;;;3.28;2.13;;;;;;;;;;5004400;28;20044;-59
2023/10/18 03:52:18;;;;;;;3.20;2.30;;;;;;;;;;5004111;28;20166;-58
2023/10/18 03:54:57;;;;;;;2.90;2.17;;;;;;;;;;5004943;28;20472;-58
2023/10/18 03:57:29;;;;;;;3.87;2.33;;;;;;;;;;5009133;28;20033;-59
2023/10/18 03:59:58;;;;;;;2.95;2.17;;;;;;;;;;5007096;28;20446;-59
2023/10/18 04:04:57;;;;;;;3.85;2.25;;;;;;;;;;5001294;28;20024;-59
2023/10/18 04:07:24;;;;;;;3.50;2.20;;;;;;;;;;4997486;28;20033;-58
2023/10/18 04:12:19;;;;;;;4.07;2.63;;;;;;;;;;5008904;28;20054;-59
2023/10/18 04:14:53;;;;;;;3.08;2.40;;;;;;;;;;5001376;28;20036;-58
2023/10/18 04:17:32;;;;;;;3.00;2.38;;;;;;;;;;5004032;28;20044;-59
2023/10/18 04:19:58;;;;;;;4.03;2.50;;;;;;;;;;4999295;28;20498;-58
2023/10/18 04:22:23;;;;;;;4.35;2.22;;;;;;;;;;5001009;28;20644;-59
2023/10/18 04:24:50;;;;;;;2.90;2.05;;;;;;;;;;5000344;28;20030;-58
2023/10/18 04:27:15;;;;;;;3.03;2.00;;;;;;;;;;5003519;28;20069;-59
2023/10/18 04:29:40;;;;;;;4.75;2.22;;;;;;;;;;5007565;28;20045;-59
2023/10/18 04:32:15;;;;;;;3.28;2.08;;;;;;;;;;5019328;28;20537;-59
2023/10/18 04:34:41;;;;;;;2.80;2.22;;;;;;;;;;4999240;28;20038;-59
2023/10/18 04:37:09;;;;;;;3.95;2.40;;;;;;;;;;5004500;28;20048;-59
2023/10/18 04:39:35;;;;;;;3.65;2.60;;;;;;;;;;5000543;28;20022;-60
2023/10/18 04:42:03;;;;;;;2.97;2.10;;;;;;;;;;5003632;28;20494;-60
2023/10/18 04:44:29;;;;;;;2.92;2.10;;;;;;;;;;5000308;28;20041;-60
2023/10/18 04:46:59;;;;;;;3.10;2.20;;;;;;;;;;5000075;28;20038;-60
2023/10/18 04:49:38;;;;;;;3.00;2.30;;;;;;;;;;5008362;28;20030;-59
2023/10/18 04:52:09;;;;;;;2.78;2.10;;;;;;;;;;4998810;28;20064;-59
2023/10/18 04:54:41;;;;;;;3.33;2.28;;;;;;;;;;5001369;28;20501;-59
2023/10/18 04:57:15;;;;;;;3.30;2.05;;;;;;;;;;4998822;28;20111;-58
2023/10/18 04:59:46;;;;;;;4.65;2.20;;;;;;;;;;4996828;28;20061;-59
2023/10/18 05:02:18;;;;;;;3.83;2.30;;;;;;;;;;5015498;28;20042;-59
2023/10/18 05:04:43;;;;;;;3.22;2.30;;;;;;;;;;5014479;28;20080;-60
2023/10/18 05:07:14;;;;;;;3.13;2.15;;;;;;;;;;5000683;28;20038;-59
2023/10/18 05:09:45;;;;;;;3.03;2.25;;;;;;;;;;4998479;28;20076;-61
2023/10/18 05:14:43;;;;;;;3.53;2.22;;;;;;;;;;4999889;28;20034;-61
2023/10/18 05:17:21;;;;;;;3.80;2.38;;;;;;;;;;5015190;28;20033;-62
2023/10/18 05:19:47;;;;;;;3.17;2.20;;;;;;;;;;5000123;28;20673;-60
2023/10/18 05:22:24;;;;;;;3.65;2.25;;;;;;;;;;4999279;28;20025;-60
2023/10/18 05:27:38;;;;;;;4.65;2.38;;;;;;;;;;5013402;28;20461;-60
2023/10/18 05:30:14;;;;;;;3.40;2.05;;;;;;;;;;4996548;28;20041;-60
2023/10/18 05:32:47;;;;;;;3.50;2.22;;;;;;;;;;4999559;28;20049;-60
2023/10/18 05:37:50;;;;;;;3.17;2.10;;;;;;;;;;4997845;28;20042;-60
2023/10/18 05:43:03;;;;;;;3.65;2.30;;;;;;;;;;4997559;28;20165;-60
2023/10/18 05:45:31;;;;;;;3.25;2.25;;;;;;;;;;4997721;28;20022;-61
2023/10/18 05:47:58;;;;;;;4.82;2.10;;;;;;;;;;4996977;28;20534;-59
2023/10/18 05:50:24;;;;;;;3.75;2.05;;;;;;;;;;4990192;28;20045;-58
2023/10/18 05:52:57;;;;;;;4.07;2.17;;;;;;;;;;4997685;28;20053;-58
2023/10/18 05:55:23;;;;;;;6.65;2.15;;;;;;;;;;4997491;28;20696;-60
2023/10/18 05:57:50;;;;;;;5.10;2.25;;;;;;;;;;4998986;28;20459;-60
2023/10/18 06:00:18;;;;;;;5.43;2.15;;;;;;;;;;4998493;28;20477;-58
2023/10/18 06:02:45;;;;;;;3.13;2.33;;;;;;;;;;4998550;28;20104;-58
2023/10/18 06:05:11;;;;;;;4.55;2.22;;;;;;;;;;4997486;28;20462;-58
2023/10/18 06:07:36;;;;;;;4.30;2.20;;;;;;;;;;4998676;28;20048;-59
2023/10/18 06:10:13;;;;;;;3.58;2.25;;;;;;;;;;4998619;28;20034;-59
2023/10/18 06:12:41;;;;;;;3.75;2.10;;;;;;;;;;4998976;28;20054;-59
2023/10/18 06:15:12;;;;;;;3.50;1.88;;;;;;;;;;5015787;28;20081;-59
2023/10/18 06:17:47;;;;;;;2.50;2.00;;;;;;;;;;4999981;28;20050;-59
2023/10/18 06:20:34;;;;;;;3.55;2.03;;;;;;;;;;4993080;28;20053;-59
2023/10/18 06:28:49;;;;;;;2.90;1.85;;;;;;;;;;4930673;29;20129;-59
2023/10/18 06:31:14;;;;;;;2.85;2.00;;;;;;;;;;4963906;28;20167;-58
2023/10/18 06:33:40;;;;;;;3.13;2.10;;;;;;;;;;4991684;28;20054;-58
2023/10/18 06:36:12;;;;;;;3.13;1.60;;;;;;;;;;4991141;28;20046;-59
2023/10/18 06:38:37;;;;;;;4.60;1.80;;;;;;;;;;4991787;28;22447;-58
2023/10/18 06:41:10;;;;;;;3.40;1.73;;;;;;;;;;4990882;28;20068;-59
2023/10/18 06:43:36;;;;;;;4.10;2.08;;;;;;;;;;4991152;28;20045;-59
2023/10/18 06:46:04;;;;;;;5.05;2.03;;;;;;;;;;4990943;28;20127;-59
2023/10/18 06:48:30;;;;;;;3.10;2.15;;;;;;;;;;5006956;28;20026;-58
2023/10/18 06:50:57;;;;;;;3.33;2.20;;;;;;;;;;4989841;28;20588;-58
2023/10/18 06:53:22;;;;;;;3.08;1.90;;;;;;;;;;4989647;28;20071;-60
2023/10/18 06:55:58;;;;;;;3.95;2.00;;;;;;;;;;4989300;28;20558;-58
2023/10/18 07:00:53;;;;;;;3.90;1.90;;;;;;;;;;4991707;28;20064;-57
2023/10/18 07:03:24;;;;;;;3.60;2.10;;;;;;;;;;4990105;28;20046;-57
2023/10/18 07:05:51;;;;;;;3.30;2.08;;;;;;;;;;4990130;28;20046;-57
2023/10/18 07:08:19;;;;;;;3.05;1.98;;;;;;;;;;4991039;28;20030;-57
2023/10/18 07:10:53;;;;;;;4.50;1.88;;;;;;;;;;4989842;28;20041;-58
2023/10/18 07:13:21;;;;;;;3.80;2.20;;;;;;;;;;4991572;28;20164;-57
2023/10/18 07:15:46;;;;;;;4.10;1.90;;;;;;;;;;4992290;28;20101;-58
2023/10/18 07:18:14;;;;;;;3.92;2.00;;;;;;;;;;4989821;28;20028;-57
2023/10/18 07:20:41;;;;;;;3.45;1.70;;;;;;;;;;5004266;28;20026;-57
2023/10/18 07:23:10;;;;;;;4.07;2.00;;;;;;;;;;4990501;28;20034;-57
2023/10/18 07:25:37;;;;;;;3.15;1.73;;;;;;;;;;4991422;28;20113;-57
2023/10/18 07:28:03;;;;;;;3.17;2.00;;;;;;;;;;4989910;28;20049;-57
2023/10/18 07:30:37;;;;;;;2.88;1.90;;;;;;;;;;4991228;28;20042;-58
2023/10/18 07:33:03;;;;;;;3.78;1.58;;;;;;;;;;4991343;28;20043;-57
2023/10/18 07:35:30;;;;;;;4.30;2.08;;;;;;;;;;4991447;28;20034;-58
2023/10/18 07:37:56;;;;;;;3.88;1.60;;;;;;;;;;4989949;28;20038;-57
2023/10/18 07:40:21;;;;;;;5.32;2.20;;;;;;;;;;4991356;28;20109;-57
2023/10/18 07:42:51;;;;;;;6.25;2.00;;;;;;;;;;4989703;28;20057;-58
2023/10/18 07:45:21;;;;;;;;;;;;;;;;;;4992192;28;20120;-58
2023/10/18 07:47:53;;;;;;;2.97;1.85;;;;;;;;;;4990133;28;19991;-57
2023/10/18 07:53:02;;;;;;;3.83;1.95;;;;;;;;;;4990493;28;20087;-58
2023/10/18 07:55:27;;;;;;;3.70;2.15;;;;;;;;;;4990337;28;20042;-57
2023/10/18 07:57:54;;;;;;;2.63;1.80;;;;;;;;;;4994834;28;20037;-56
2023/10/18 08:00:23;;;;;;;2.60;1.63;;;;;;;;;;5000042;28;20797;-57
2023/10/18 08:02:48;;;;;;;2.50;1.88;;;;;;;;;;4998029;28;20143;-58
2023/10/18 08:05:18;;;;;;;3.03;1.90;;;;;;;;;;4999692;28;20129;-57
2023/10/18 08:07:49;;;;;;;4.30;2.15;;;;;;;;;;4996590;28;20037;-58
2023/10/18 08:10:19;;;;;;;3.15;1.88;;;;;;;;;;4998469;28;20048;-59
2023/10/18 08:12:44;;;;;;;3.53;1.85;;;;;;;;;;4999541;28;20096;-58
2023/10/18 08:15:22;;;;;;;2.65;1.77;;;;;;;;;;4997334;28;20088;-57
2023/10/18 08:17:50;;;;;;;2.67;2.05;;;;;;;;;;4998544;28;20044;-57
2023/10/18 08:22:47;;;;;;;3.17;1.88;;;;;;;;;;4993094;28;20341;-57
2023/10/18 08:25:29;;;;;;;3.88;2.05;;;;;;;;;;4995430;28;20462;-57
2023/10/18 08:27:55;;;;;;;2.92;2.00;;;;;;;;;;5012725;28;20026;-57
2023/10/18 08:31:03;;;;;;;4.05;2.00;;;;;;;;;;4998622;28;20069;-57
2023/10/18 08:33:10;;;;;;;2.88;2.00;;;;;;;;;;4994558;28;20045;-58
2023/10/18 08:35:38;;;;;;;2.78;2.22;;;;;;;;;;4998861;28;20026;-57
2023/10/18 08:38:03;;;;;;;2.30;1.77;;;;;;;;;;5012119;28;20026;-57
2023/10/18 08:43:06;;;;;;;3.45;2.35;;;;;;;;;;5002047;28;20128;-57
2023/10/18 08:45:36;;;;;;;2.65;2.03;;;;;;;;;;5000072;28;20058;-57
2023/10/18 08:48:09;;;;;;;2.90;1.92;;;;;;;;;;5000615;28;20042;-57
2023/10/18 08:50:35;;;;;;;3.13;2.10;;;;;;;;;;5000156;28;20037;-57
2023/10/18 08:53:00;;;;;;;4.22;2.00;;;;;;;;;;5000556;28;20049;-57
2023/10/18 08:55:43;;;;;;;2.63;1.90;;;;;;;;;;5003426;28;20463;-57
2023/10/18 08:58:10;;;;;;;2.50;1.90;;;;;;;;;;5000164;28;20037;-57
2023/10/18 09:03:06;;;;;;;3.72;2.17;;;;;;;;;;5019219;28;20042;-57
2023/10/18 09:05:31;;;;;;;3.22;2.08;;;;;;;;;;4999328;28;20041;-57
2023/10/18 09:08:03;;;;;;;2.90;2.00;;;;;;;;;;4999685;28;20042;-57
2023/10/18 09:10:49;;;;;;;9.27;3.70;;;;;;;;;;4993045;28;20025;-57
2023/10/18 09:18:20;;;;;;;;;;;;;;;;;;5000960;28;20061;-58
2023/10/18 09:20:46;;;;;;;8.23;3.30;;;;;;;;;;5000805;28;19949;-57
2023/10/18 09:23:16;;;;;;;9.02;4.20;;;;;;;;;;4998990;28;20026;-58
2023/10/18 09:30:54;;;;;;;8.20;3.40;;;;;;;;;;4995337;28;20034;-58
2023/10/18 09:33:19;;;;;;;6.78;3.60;;;;;;;;;;4991755;28;20315;-58
2023/10/18 09:35:48;;;;;;;6.30;3.40;;;;;;;;;;4991352;28;20477;-58
2023/10/18 09:38:17;;;;;;;9.25;6.68;;;;;;;;;;4990759;28;20544;-57
2023/10/18 09:40:42;;;;;;;10.10;6.57;;;;;;;;;;4993309;28;20076;-57
2023/10/18 09:43:07;;;;;;;21.95;15.07;;;;;;;;;;5005243;28;20026;-58
2023/10/18 09:45:35;;;;;;;14.13;9.70;;;;;;;;;;4992925;28;20030;-57
2023/10/18 09:48:00;;;;;;;15.02;8.98;;;;;;;;;;4991438;28;20667;-57
2023/10/18 09:50:28;;;;;;;11.25;6.88;;;;;;;;;;4992793;28;20049;-57
2023/10/18 09:52:59;;;;;;;9.60;6.85;;;;;;;;;;5004903;28;20115;-58
2023/10/18 09:55:28;;;;;;;8.85;5.75;;;;;;;;;;5006581;28;20043;-58
2023/10/18 09:57:59;;;;;;;6.57;5.05;;;;;;;;;;5006290;28;20058;-57
2023/10/18 10:00:33;;;;;;;7.40;5.20;;;;;;;;;;4992146;28;20051;-57
2023/10/18 10:02:59;;;;;;;8.05;5.05;;;;;;;;;;4991591;28;20439;-58
2023/10/18 10:05:25;;;;;;;12.40;5.30;;;;;;;;;;5006292;28;20041;-57
2023/10/18 10:07:53;;;;;;;9.18;4.90;;;;;;;;;;5004106;28;20487;-57
2023/10/18 10:10:23;;;;;;;8.75;4.47;;;;;;;;;;4991240;28;20529;-57
2023/10/18 10:12:49;;;;;;;7.35;4.68;;;;;;;;;;4991062;28;20137;-58
2023/10/18 10:15:15;;;;;;;10.43;4.65;;;;;;;;;;5007167;28;20125;-57
2023/10/18 10:17:41;;;;;;;8.63;4.40;;;;;;;;;;4993280;28;20100;-58
2023/10/18 10:20:14;;;;;;;8.32;4.55;;;;;;;;;;5007042;28;20049;-57
2023/10/18 10:22:41;;;;;;;6.72;4.05;;;;;;;;;;4991937;28;20128;-58
2023/10/18 10:25:11;;;;;;;7.72;4.20;;;;;;;;;;4990654;28;20370;-58
2023/10/18 10:30:19;;;;;;;5.47;4.00;;;;;;;;;;4989781;28;20133;-56
2023/10/18 10:32:45;;;;;;;7.82;4.40;;;;;;;;;;5002662;28;20132;-57
2023/10/18 10:35:24;;;;;;;6.88;3.60;;;;;;;;;;4990716;28;20120;-56
2023/10/18 10:37:49;;;;;;;7.50;3.97;;;;;;;;;;4991355;28;20030;-56
2023/10/18 10:43:01;;;;;;;7.05;3.70;;;;;;;;;;4990727;28;20329;-57
2023/10/18 10:48:37;;;;;;;6.72;3.45;;;;;;;;;;4986991;28;20037;-57
2023/10/18 10:51:16;;;;;;;6.15;3.78;;;;;;;;;;4989947;28;20042;-57
2023/10/18 10:53:48;;;;;;;7.38;3.75;;;;;;;;;;4989733;28;20050;-56
2023/10/18 10:56:20;;;;;;;6.25;3.50;;;;;;;;;;4989852;28;20033;-56
2023/10/18 10:58:55;;;;;;;5.20;3.75;;;;;;;;;;4989804;28;20108;-56
2023/10/18 11:04:25;;;;;;;5.45;3.30;;;;;;;;;;4989233;28;20594;-56
2023/10/18 11:06:56;;;;;;;6.10;3.72;;;;;;;;;;4990698;28;20041;-56
2023/10/18 11:09:34;;;;;;;6.57;3.50;;;;;;;;;;4989968;28;20034;-56
2023/10/18 11:12:03;;;;;;;5.35;3.33;;;;;;;;;;5003437;28;20048;-55
2023/10/18 11:14:29;;;;;;;8.25;3.95;;;;;;;;;;4990668;28;20045;-56
2023/10/18 11:17:03;;;;;;;8.40;3.90;;;;;;;;;;4990764;28;20050;-55
2023/10/18 11:19:29;;;;;;;6.57;3.42;;;;;;;;;;4988109;28;20072;-55
2023/10/18 11:21:58;;;;;;;6.00;3.30;;;;;;;;;;4989818;28;20769;-57
2023/10/18 11:24:24;;;;;;;7.72;3.40;;;;;;;;;;5003978;28;20029;-57
2023/10/18 11:26:50;;;;;;;6.15;3.17;;;;;;;;;;4990508;28;20520;-57
2023/10/18 11:29:24;;;;;;;5.68;3.22;;;;;;;;;;4989819;28;20045;-55
2023/10/18 11:31:50;;;;;;;7.03;3.90;;;;;;;;;;4987639;28;20064;-56
2023/10/18 11:34:21;;;;;;;9.30;4.15;;;;;;;;;;4986795;28;20030;-56
2023/10/18 11:36:49;;;;;;;7.82;3.60;;;;;;;;;;4989081;28;20519;-57
2023/10/18 11:39:18;;;;;;;5.40;3.30;;;;;;;;;;4989463;28;20088;-56
2023/10/18 11:41:49;;;;;;;7.75;3.67;;;;;;;;;;5003887;28;20022;-57
2023/10/18 11:44:26;;;;;;;7.72;3.70;;;;;;;;;;4990284;28;20518;-56
2023/10/18 11:47:00;;;;;;;6.57;3.50;;;;;;;;;;4989581;28;20038;-56
2023/10/18 11:49:38;;;;;;;8.05;3.67;;;;;;;;;;4989671;28;20087;-56
2023/10/18 11:52:03;;;;;;;7.28;3.42;;;;;;;;;;4989421;28;20046;-56
2023/10/18 11:54:30;;;;;;;6.63;3.20;;;;;;;;;;4989271;28;20042;-56
2023/10/18 11:56:58;;;;;;;5.43;3.20;;;;;;;;;;4990104;28;20043;-56
2023/10/18 11:59:24;;;;;;;6.90;3.70;;;;;;;;;;4987970;28;20038;-56
2023/10/18 12:01:54;;;;;;;6.32;3.40;;;;;;;;;;4989781;28;20041;-55
2023/10/18 12:04:27;;;;;;;6.10;3.20;;;;;;;;;;5003450;28;20108;-56
2023/10/18 12:06:52;;;;;;;6.40;3.50;;;;;;;;;;4992427;28;20054;-56
2023/10/18 12:11:49;;;;;;;4.47;3.13;;;;;;;;;;4994297;28;20046;-56
2023/10/18 12:14:14;;;;;;;6.03;3.60;;;;;;;;;;4972888;28;20038;-56
2023/10/18 12:16:41;;;;;;;5.32;3.20;;;;;;;;;;4997442;28;20469;-56
2023/10/18 12:19:10;;;;;;;4.80;2.90;;;;;;;;;;5000054;28;20115;-56
2023/10/18 12:21:36;;;;;;;5.35;3.22;;;;;;;;;;4998029;28;20041;-56
2023/10/18 12:24:04;;;;;;;7.15;3.50;;;;;;;;;;4997405;28;20052;-57
2023/10/18 12:26:30;;;;;;;5.40;3.00;;;;;;;;;;4995072;28;20061;-55
2023/10/18 12:28:55;;;;;;;6.97;3.50;;;;;;;;;;4982579;28;20144;-55
2023/10/18 12:31:27;;;;;;;6.32;3.17;;;;;;;;;;4992593;28;20117;-56
2023/10/18 12:33:57;;;;;;;4.93;2.55;;;;;;;;;;5015430;28;20069;-56
2023/10/18 12:36:23;;;;;;;5.10;3.25;;;;;;;;;;4992425;28;20596;-55
2023/10/18 12:38:49;;;;;;;6.63;3.35;;;;;;;;;;4999015;28;20033;-56
2023/10/18 12:41:31;;;;;;;6.13;2.90;;;;;;;;;;4999917;28;20034;-55
2023/10/18 12:43:56;;;;;;;5.72;3.00;;;;;;;;;;4999528;28;20041;-54
2023/10/18 12:46:22;;;;;;;6.30;3.30;;;;;;;;;;4999509;28;20045;-55
2023/10/18 12:48:51;;;;;;;4.63;2.95;;;;;;;;;;5001002;28;20045;-55
2023/10/18 12:51:17;;;;;;;6.47;2.85;;;;;;;;;;4998701;28;20034;-55
2023/10/18 12:53:47;;;;;;;5.97;3.08;;;;;;;;;;4999803;28;20046;-55
2023/10/18 13:04:06;;;;;;;4.40;2.70;;;;;;;;;;4990627;28;20041;-55
2023/10/18 13:06:35;;;;;;;5.63;3.30;;;;;;;;;;4992615;28;20042;-55
2023/10/18 13:12:00;;;;;;;5.75;3.08;;;;;;;;;;4991617;28;20048;-56
2023/10/18 13:14:32;;;;;;;4.68;2.95;;;;;;;;;;5004526;28;20041;-55
2023/10/18 13:16:58;;;;;;;4.13;2.63;;;;;;;;;;4992194;28;20072;-55
2023/10/18 13:19:25;;;;;;;5.88;3.13;;;;;;;;;;4992208;28;20045;-56
2023/10/18 13:21:50;;;;;;;4.80;2.80;;;;;;;;;;4990836;28;20564;-56
2023/10/18 13:26:53;;;;;;;4.05;2.60;;;;;;;;;;5005137;28;20049;-56
2023/10/18 13:31:46;;;;;;;4.85;2.85;;;;;;;;;;4991999;28;20577;-56
2023/10/18 13:34:18;;;;;;;4.82;3.00;;;;;;;;;;4993358;28;20045;-56
2023/10/18 13:36:53;;;;;;;4.90;3.20;;;;;;;;;;4982475;28;20042;-56
2023/10/18 13:39:19;;;;;;;4.97;3.00;;;;;;;;;;4987063;28;20391;-55
2023/10/18 13:41:46;;;;;;;4.70;2.83;;;;;;;;;;4990505;28;20097;-56
2023/10/18 13:44:23;;;;;;;4.20;3.00;;;;;;;;;;4990363;28;20121;-55
2023/10/18 13:46:51;;;;;;;4.68;2.72;;;;;;;;;;5002727;28;20042;-56
2023/10/18 13:49:19;;;;;;;4.95;2.90;;;;;;;;;;4991082;28;20038;-56
2023/10/18 13:51:45;;;;;;;4.57;3.17;;;;;;;;;;5004170;28;20475;-56
2023/10/18 13:54:12;;;;;;;5.00;2.70;;;;;;;;;;4989934;28;20656;-56
2023/10/18 13:56:38;;;;;;;5.28;3.47;;;;;;;;;;5005377;28;20146;-56
2023/10/18 13:59:03;;;;;;;4.88;3.00;;;;;;;;;;4992223;28;20034;-56
2023/10/18 14:01:28;;;;;;;4.57;3.25;;;;;;;;;;4989468;28;20053;-57
2023/10/18 14:03:54;;;;;;;4.13;2.53;;;;;;;;;;4991492;28;20045;-56
2023/10/18 14:06:20;;;;;;;4.35;3.03;;;;;;;;;;4991792;28;20038;-56
2023/10/18 14:08:45;;;;;;;4.18;2.70;;;;;;;;;;5006874;28;20048;-56
2023/10/18 14:11:14;;;;;;;4.50;2.90;;;;;;;;;;5004766;28;20677;-56
2023/10/18 14:13:42;;;;;;;6.35;3.33;;;;;;;;;;4991407;28;20081;-56
2023/10/18 14:16:09;;;;;;;4.60;2.80;;;;;;;;;;4990866;28;20113;-56
2023/10/18 14:18:34;;;;;;;3.67;2.72;;;;;;;;;;5006300;28;20018;-55
2023/10/18 14:21:04;;;;;;;4.63;3.10;;;;;;;;;;4989239;28;20084;-56
2023/10/18 14:23:31;;;;;;;;;;;;;;;;;;4994755;28;20038;-56
2023/10/18 14:25:56;;;;;;;4.50;2.65;;;;;;;;;;4996108;28;19920;-55
2023/10/18 14:28:21;;;;;;;5.75;2.80;;;;;;;;;;5015080;28;20022;-55
2023/10/18 14:30:47;;;;;;;5.30;3.20;;;;;;;;;;4997007;28;20101;-56
2023/10/18 14:33:12;;;;;;;5.28;2.95;;;;;;;;;;4998088;28;20447;-56
2023/10/18 14:35:38;;;;;;;5.15;3.00;;;;;;;;;;4998028;28;20045;-57
2023/10/18 14:38:06;;;;;;;5.22;3.08;;;;;;;;;;4997005;28;20132;-57
2023/10/18 14:40:34;;;;;;;4.68;3.05;;;;;;;;;;4997459;28;20678;-55
2023/10/18 14:43:00;;;;;;;5.18;2.92;;;;;;;;;;4998315;28;20038;-55
2023/10/18 14:45:32;;;;;;;3.45;2.50;;;;;;;;;;4997205;28;20497;-56
2023/10/18 14:47:57;;;;;;;4.47;2.63;;;;;;;;;;5002823;28;20049;-56
2023/10/18 14:50:22;;;;;;;5.32;3.03;;;;;;;;;;5000845;28;20034;-57
2023/10/18 14:52:47;;;;;;;4.72;2.70;;;;;;;;;;4998478;28;20371;-57
2023/10/18 14:55:13;;;;;;;4.43;2.90;;;;;;;;;;5001170;28;20029;-57
2023/10/18 14:57:42;;;;;;;4.10;3.08;;;;;;;;;;5001483;28;20054;-57
2023/10/18 15:00:19;;;;;;;4.40;2.50;;;;;;;;;;5004033;28;20030;-57
2023/10/18 15:02:46;;;;;;;4.32;2.75;;;;;;;;;;5000279;28;20045;-57
2023/10/18 15:05:11;;;;;;;3.63;2.70;;;;;;;;;;5003949;28;20038;-57
2023/10/18 15:07:39;;;;;;;8.53;5.20;;;;;;;;;;4998916;28;20042;-56
2023/10/18 15:10:06;;;;;;;6.10;4.30;;;;;;;;;;5003908;28;20816;-56
2023/10/18 15:12:31;;;;;;;5.28;3.50;;;;;;;;;;4998449;28;20474;-56
2023/10/18 15:14:57;;;;;;;5.00;3.75;;;;;;;;;;5001787;28;20054;-56
2023/10/18 15:17:22;;;;;;;5.50;3.80;;;;;;;;;;4996245;28;20465;-56
2023/10/18 15:19:50;;;;;;;4.88;3.65;;;;;;;;;;5001768;28;20308;-56
2023/10/18 15:22:15;;;;;;;5.10;3.25;;;;;;;;;;4981722;28;20057;-56
2023/10/18 15:24:41;;;;;;;5.17;3.43;;;;;;;;;;5003466;28;20108;-56
2023/10/18 15:27:07;;;;;;;4.70;3.40;;;;;;;;;;5002432;28;20269;-56
2023/10/18 15:29:32;;;;;;;4.57;3.08;;;;;;;;;;5002166;28;20820;-56
2023/10/18 15:31:57;;;;;;;7.07;5.13;;;;;;;;;;4996503;28;20076;-56
2023/10/18 15:34:23;;;;;;;6.10;5.50;;;;;;;;;;4998028;28;20034;-55
2023/10/18 15:36:49;;;;;;;6.68;5.28;;;;;;;;;;5000029;28;20293;-56
2023/10/18 15:39:18;;;;;;;7.60;5.80;;;;;;;;;;5000091;28;20048;-57
2023/10/18 15:41:43;;;;;;;8.77;6.10;;;;;;;;;;5015832;28;20157;-56
2023/10/18 15:44:10;;;;;;;7.82;5.90;;;;;;;;;;4998382;28;20779;-55
2023/10/18 15:46:38;;;;;;;8.07;6.80;;;;;;;;;;4995049;28;20546;-56
2023/10/18 15:49:03;;;;;;;8.95;6.40;;;;;;;;;;4999459;28;20034;-56
2023/10/18 15:51:29;;;;;;;7.22;6.15;;;;;;;;;;5001472;28;20049;-55
2023/10/18 15:53:54;;;;;;;8.73;6.57;;;;;;;;;;5004100;28;20161;-55
2023/10/18 15:56:21;;;;;;;9.90;7.03;;;;;;;;;;5001556;28;20037;-56
2023/10/18 15:58:46;;;;;;;10.65;6.97;;;;;;;;;;4995906;28;20421;-55
2023/10/18 16:01:12;;;;;;;7.78;6.75;;;;;;;;;;4998391;28;20038;-56
2023/10/18 16:03:40;;;;;;;8.13;6.28;;;;;;;;;;4999734;28;20053;-55
2023/10/18 16:06:05;;;;;;;8.70;6.70;;;;;;;;;;5000049;28;20042;-55
2023/10/18 16:08:31;;;;;;;7.50;6.57;;;;;;;;;;5001246;28;20521;-55